Weather reports worldwide

Advertisment
Edinburgh, United Kingdom (3160): temperature & dewpoint: 03.04.2020 20:00:00 - 09.04.2020 20:00:00 (BST)Edinburgh, United Kingdom (3160): wind speed: 03.04.2020 20:00:00 - 09.04.2020 20:00:00 (BST)Edinburgh, United Kingdom (3160): wind direction: 03.04.2020 20:00:00 - 09.04.2020 20:00:00 (BST)Edinburgh, United Kingdom (3160): visibility: 03.04.2020 20:00:00 - 09.04.2020 20:00:00 (BST)
Date & Time tt [°C] td [°C] ff [km/h] ff [kn] dd vv [km]
09.04.2020 20:00:00 8,0 6,0 16 9 NE 10
09.04.2020 19:00:00 8,0 7,0 16 9 NE 10
09.04.2020 18:00:00 9,0 7,0 16 9 NE 10
09.04.2020 17:00:00 9,0 7,0 15 8 NNE 10
09.04.2020 16:00:00 9,0 7,0 18 10 NE 10
09.04.2020 15:00:00 9,0 7,0 18 10 NE 10
09.04.2020 14:00:00 9,0 7,0 21 11 NE 10
09.04.2020 13:00:00 9,0 7,0 18 10 NE 10
09.04.2020 12:00:00 8,0 6,0 21 11 NE 10
09.04.2020 11:00:00 8,0 6,0 16 9 ENE 10
09.04.2020 10:00:00 8,0 5,0 16 9 E 10
09.04.2020 09:00:00 7,0 5,0 15 8 E 10
09.04.2020 08:00:00 6,0 5,0 15 8 E 10
09.04.2020 07:00:00 5,0 5,0 16 9 E 4,1
09.04.2020 06:00:00 6,0 5,0 13 7 E 6
09.04.2020 05:00:00 - - - - - -
09.04.2020 04:00:00 - - - - - -
09.04.2020 03:00:00 6,0 5,0 16 9 ENE 6
09.04.2020 02:00:00 6,0 5,0 16 9 ENE 10
09.04.2020 01:00:00 6,0 6,0 15 8 ENE 8
09.04.2020 00:00:00 6,0 5,0 16 9 ENE 8
08.04.2020 23:00:00 7,0 5,0 22 12 ENE 10
08.04.2020 22:00:00 7,0 6,0 24 13 NE 10
08.04.2020 21:00:00 12,0 8,0 11 6 W 10
08.04.2020 20:00:00 12,0 8,0 15 8 WSW 10
08.04.2020 19:00:00 13,0 7,0 21 11 WSW 10
08.04.2020 18:00:00 14,0 7,0 21 11 WSW 10
08.04.2020 17:00:00 15,0 6,0 21 11 W 10
08.04.2020 16:00:00 16,0 6,0 26 14 W 10
08.04.2020 15:00:00 16,0 5,0 26 14 WSW 10
08.04.2020 14:00:00 15,0 5,0 21 11 W 10
08.04.2020 13:00:00 16,0 5,0 26 14 W 10
08.04.2020 12:00:00 15,0 6,0 28 15 WSW 10
08.04.2020 11:00:00 14,0 5,0 26 14 WSW 10
08.04.2020 10:00:00 12,0 6,0 22 12 WSW 10
08.04.2020 09:00:00 10,0 6,0 16 9 WSW 10
08.04.2020 08:00:00 8,0 5,0 18 10 SW 10
08.04.2020 07:00:00 7,0 4,0 18 10 WSW 10
08.04.2020 06:00:00 6,0 4,0 13 7 WSW 10
08.04.2020 05:00:00 4,0 2,0 13 7 WSW 10
08.04.2020 04:00:00 7,0 3,0 18 10 SW 10
08.04.2020 03:00:00 6,0 3,0 9 5 W 10
08.04.2020 02:00:00 6,0 2,0 9 5 WSW 10
08.04.2020 01:00:00 7,0 2,0 9 5 WSW 10
08.04.2020 00:00:00 7,0 2,0 8 4 W 10
07.04.2020 23:00:00 6,0 2,0 13 7 SW 10
07.04.2020 22:00:00 8,0 2,0 15 8 SSW 10
07.04.2020 21:00:00 8,0 2,0 13 7 SW 10
07.04.2020 20:00:00 10,0 2,0 13 7 SSW 10
07.04.2020 19:00:00 12,0 1,0 26 14 SW 10
07.04.2020 18:00:00 14,0 2,0 26 14 SSW 10
07.04.2020 17:00:00 14,0 1,0 31 17 SSW 10
07.04.2020 16:00:00 15,0 3,0 29 16 SW 10
07.04.2020 15:00:00 15,0 3,0 34 18 SW 10
07.04.2020 14:00:00 14,0 3,0 34 18 SW 10
07.04.2020 13:00:00 14,0 3,0 28 15 SW 10
07.04.2020 12:00:00 13,0 4,0 24 13 SW 10
07.04.2020 11:00:00 11,0 4,0 22 12 SW 10
07.04.2020 10:00:00 10,0 5,0 18 10 SW 10
07.04.2020 09:00:00 8,0 5,0 9 5 W 10
07.04.2020 08:00:00 5,0 3,0 0 0 N 10
07.04.2020 07:00:00 1,0 1,0 9 5 WSW 10
07.04.2020 06:00:00 2,0 1,0 5 3 W 10
07.04.2020 05:00:00 0,0 0,0 9 5 WSW 10
07.04.2020 04:00:00 3,0 2,0 8 4 W 10
07.04.2020 03:00:00 4,0 2,0 8 4 WSW 10
07.04.2020 02:00:00 3,0 2,0 11 6 WSW 10
07.04.2020 01:00:00 3,0 1,0 9 5 WSW 10
07.04.2020 00:00:00 3,0 2,0 9 5 SW 10
06.04.2020 23:00:00 5,0 2,0 13 7 WSW 10
06.04.2020 22:00:00 7,0 3,0 11 6 SW 10
06.04.2020 21:00:00 6,0 2,0 13 7 WSW 10
06.04.2020 20:00:00 10,0 2,0 15 8 W 10
06.04.2020 19:00:00 11,0 2,0 22 12 W 10
06.04.2020 18:00:00 12,0 2,0 26 14 W 10
06.04.2020 17:00:00 12,0 2,0 26 14 W 10
06.04.2020 16:00:00 13,0 2,0 34 18 WSW 10
06.04.2020 15:00:00 13,0 4,0 34 18 WSW 10
06.04.2020 14:00:00 14,0 3,0 37 20 WSW 10
06.04.2020 13:00:00 12,0 4,0 31 17 WSW 10
06.04.2020 12:00:00 13,0 4,0 34 18 WSW 10
06.04.2020 11:00:00 12,0 4,0 31 17 WSW 10
06.04.2020 10:00:00 10,0 4,0 37 20 WSW 10
06.04.2020 09:00:00 10,0 6,0 31 17 SW 10
06.04.2020 08:00:00 10,0 6,0 22 12 SW 10
06.04.2020 07:00:00 10,0 7,0 28 15 SW 10
06.04.2020 06:00:00 10,0 7,0 26 14 SW 10
06.04.2020 05:00:00 11,0 8,0 34 18 SW 10
06.04.2020 04:00:00 13,0 10,0 41 22 SSW 10
06.04.2020 03:00:00 13,0 10,0 42 23 S 10
06.04.2020 02:00:00 15,0 9,0 37 20 S 10
06.04.2020 01:00:00 15,0 9,0 21 11 S 10
06.04.2020 00:00:00 15,0 8,0 22 12 SSE 10
05.04.2020 23:00:00 16,0 6,0 11 6 SSE 10
05.04.2020 22:00:00 16,0 5,0 9 5 SE 10
05.04.2020 21:00:00 17,0 5,0 18 10 SSE 10
05.04.2020 20:00:00 18,0 4,0 16 9 SSE 10
05.04.2020 19:00:00 18,0 5,0 18 10 SSE 10
05.04.2020 18:00:00 19,0 4,0 21 11 S 10
05.04.2020 17:00:00 19,0 4,0 22 12 S 10
05.04.2020 16:00:00 19,0 4,0 28 15 S 10
05.04.2020 15:00:00 17,0 4,0 22 12 SSE 10
05.04.2020 14:00:00 16,0 2,0 26 14 SSE 10
05.04.2020 13:00:00 15,0 4,0 18 10 SSE 10
05.04.2020 12:00:00 11,0 6,0 16 9 NE 10
05.04.2020 11:00:00 11,0 5,0 18 10 ENE 10
05.04.2020 10:00:00 10,0 4,0 16 9 ENE 10
05.04.2020 09:00:00 9,0 4,0 13 7 E 10
05.04.2020 08:00:00 9,0 4,0 13 7 ESE 10
05.04.2020 07:00:00 7,0 3,0 13 7 SE 10
05.04.2020 06:00:00 8,0 2,0 8 4 - 10
05.04.2020 05:00:00 10,0 3,0 11 6 ESE 10
05.04.2020 04:00:00 8,0 4,0 8 4 W 10
05.04.2020 03:00:00 9,0 4,0 9 5 SW 10
05.04.2020 02:00:00 9,0 3,0 11 6 WSW 10
05.04.2020 01:00:00 9,0 3,0 5 3 - 10
05.04.2020 00:00:00 9,0 4,0 15 8 SSW 10
04.04.2020 23:00:00 9,0 5,0 9 5 S 10
04.04.2020 22:00:00 9,0 5,0 8 4 SE 10
04.04.2020 21:00:00 10,0 4,0 13 7 S 10
04.04.2020 20:00:00 10,0 4,0 13 7 S 10
04.04.2020 19:00:00 10,0 4,0 16 9 SSW 10
04.04.2020 18:00:00 10,0 4,0 22 12 SSW 10
04.04.2020 17:00:00 10,0 4,0 26 14 SSW 10
04.04.2020 16:00:00 11,0 4,0 31 17 SW 10
04.04.2020 15:00:00 11,0 5,0 22 12 SSW 10
04.04.2020 14:00:00 11,0 5,0 31 17 SSW 10
04.04.2020 13:00:00 10,0 4,0 21 11 SW 10
04.04.2020 12:00:00 - - - - - -
04.04.2020 11:00:00 10,0 5,0 21 11 SSW 10
04.04.2020 10:00:00 8,0 5,0 15 8 WSW 10
04.04.2020 09:00:00 7,0 5,0 18 10 SW 10
04.04.2020 08:00:00 5,0 4,0 8 4 SSW 10
04.04.2020 07:00:00 4,0 3,0 4 2 W 10
04.04.2020 06:00:00 4,0 3,0 13 7 SSW 10
04.04.2020 05:00:00 4,0 3,0 13 7 SW 10
04.04.2020 04:00:00 4,0 4,0 11 6 SW 10
04.04.2020 03:00:00 5,0 4,0 11 6 SW 10
04.04.2020 02:00:00 3,0 2,0 13 7 SW 10
04.04.2020 01:00:00 3,0 3,0 8 4 SW 10
04.04.2020 00:00:00 4,0 3,0 11 6 SW 10
03.04.2020 23:00:00 5,0 4,0 15 8 SW 10
03.04.2020 22:00:00 5,0 4,0 11 6 SW 10
03.04.2020 21:00:00 6,0 4,0 15 8 WSW 10
03.04.2020 20:00:00 7,0 5,0 15 8 WSW 10

tt = temperature
td = dewpoint
ff = wind speed
dd = wind direction
vv = visibility

Next stations